sensor_id;sensor_type;location;lat;lon;timestamp;pressure;altitude;pressure_sealevel;temperature;humidity
8318;BME280;4196;48.926;8.964;2023-04-29T00:00:54;98714.03;;;11.75;100.00
8318;BME280;4196;48.926;8.964;2023-04-29T00:03:41;98714.06;;;11.72;100.00
8318;BME280;4196;48.926;8.964;2023-04-29T00:06:27;98702.66;;;11.85;100.00
8318;BME280;4196;48.926;8.964;2023-04-29T00:09:14;98704.41;;;11.86;100.00
8318;BME280;4196;48.926;8.964;2023-04-29T00:12:00;98704.38;;;11.88;100.00
8318;BME280;4196;48.926;8.964;2023-04-29T00:14:47;98699.13;;;11.94;100.00
8318;BME280;4196;48.926;8.964;2023-04-29T00:17:34;98676.63;;;11.93;100.00
8318;BME280;4196;48.926;8.964;2023-04-29T00:20:20;98681.53;;;12.11;100.00
8318;BME280;4196;48.926;8.964;2023-04-29T00:23:07;98694.44;;;12.17;100.00
8318;BME280;4196;48.926;8.964;2023-04-29T00:25:54;98691.00;;;12.17;100.00
8318;BME280;4196;48.926;8.964;2023-04-29T00:28:40;98686.69;;;12.14;100.00
8318;BME280;4196;48.926;8.964;2023-04-29T00:31:27;98694.31;;;12.25;100.00
8318;BME280;4196;48.926;8.964;2023-04-29T00:34:14;98696.13;;;12.20;100.00
8318;BME280;4196;48.926;8.964;2023-04-29T00:37:01;98675.50;;;12.12;100.00
8318;BME280;4196;48.926;8.964;2023-04-29T00:39:48;98696.16;;;12.18;100.00
8318;BME280;4196;48.926;8.964;2023-04-29T00:42:35;98704.50;;;12.39;100.00
8318;BME280;4196;48.926;8.964;2023-04-29T00:45:22;98704.41;;;12.43;100.00
8318;BME280;4196;48.926;8.964;2023-04-29T00:48:09;98703.53;;;12.44;100.00
8318;BME280;4196;48.926;8.964;2023-04-29T00:50:55;98706.88;;;12.51;100.00
8318;BME280;4196;48.926;8.964;2023-04-29T00:53:43;98705.16;;;12.53;100.00
8318;BME280;4196;48.926;8.964;2023-04-29T00:56:31;98706.84;;;12.54;100.00
8318;BME280;4196;48.926;8.964;2023-04-29T00:59:19;98712.09;;;12.51;100.00
8318;BME280;4196;48.926;8.964;2023-04-29T01:02:06;98701.75;;;12.48;100.00
8318;BME280;4196;48.926;8.964;2023-04-29T01:04:53;98705.00;;;12.61;100.00
8318;BME280;4196;48.926;8.964;2023-04-29T01:08:24;98712.81;;;12.61;100.00
8318;BME280;4196;48.926;8.964;2023-04-29T01:11:18;98684.50;;;12.44;100.00
8318;BME280;4196;48.926;8.964;2023-04-29T01:14:09;98705.19;;;12.50;100.00
8318;BME280;4196;48.926;8.964;2023-04-29T01:16:59;98716.50;;;12.46;100.00
8318;BME280;4196;48.926;8.964;2023-04-29T01:19:54;98713.00;;;12.48;100.00
8318;BME280;4196;48.926;8.964;2023-04-29T01:22:41;98707.91;;;12.41;100.00
8318;BME280;4196;48.926;8.964;2023-04-29T01:25:28;98703.78;;;12.30;100.00
8318;BME280;4196;48.926;8.964;2023-04-29T01:28:45;98720.97;;;12.36;100.00
8318;BME280;4196;48.926;8.964;2023-04-29T01:31:56;98726.44;;;12.19;100.00
8318;BME280;4196;48.926;8.964;2023-04-29T01:34:50;98719.63;;;12.12;100.00
8318;BME280;4196;48.926;8.964;2023-04-29T01:40:37;98724.13;;;11.96;100.00
8318;BME280;4196;48.926;8.964;2023-04-29T01:43:36;98708.56;;;11.96;100.00
8318;BME280;4196;48.926;8.964;2023-04-29T01:46:34;98725.00;;;11.98;100.00
8318;BME280;4196;48.926;8.964;2023-04-29T01:49:25;98712.88;;;11.99;100.00
8318;BME280;4196;48.926;8.964;2023-04-29T01:52:12;98729.25;;;12.02;100.00
8318;BME280;4196;48.926;8.964;2023-04-29T01:55:01;98717.53;;;11.71;100.00
8318;BME280;4196;48.926;8.964;2023-04-29T01:57:58;98726.09;;;11.77;100.00
8318;BME280;4196;48.926;8.964;2023-04-29T02:01:12;98727.16;;;11.61;100.00
8318;BME280;4196;48.926;8.964;2023-04-29T02:03:59;98729.88;;;11.50;100.00
8318;BME280;4196;48.926;8.964;2023-04-29T02:06:46;98722.25;;;11.36;100.00
8318;BME280;4196;48.926;8.964;2023-04-29T02:09:36;98730.22;;;11.18;100.00
8318;BME280;4196;48.926;8.964;2023-04-29T02:12:27;98702.81;;;10.99;100.00
8318;BME280;4196;48.926;8.964;2023-04-29T02:15:14;98723.50;;;11.02;100.00
8318;BME280;4196;48.926;8.964;2023-04-29T02:18:01;98729.66;;;10.88;100.00
8318;BME280;4196;48.926;8.964;2023-04-29T02:20:48;98727.97;;;10.84;100.00
8318;BME280;4196;48.926;8.964;2023-04-29T02:23:36;98729.75;;;10.79;100.00
8318;BME280;4196;48.926;8.964;2023-04-29T02:26:23;98733.25;;;10.75;100.00
8318;BME280;4196;48.926;8.964;2023-04-29T02:29:09;98737.63;;;10.69;100.00
8318;BME280;4196;48.926;8.964;2023-04-29T02:31:56;98736.78;;;10.65;100.00
8318;BME280;4196;48.926;8.964;2023-04-29T02:34:43;98678.41;;;10.23;100.00
8318;BME280;4196;48.926;8.964;2023-04-29T02:37:30;98719.75;;;10.36;100.00
8318;BME280;4196;48.926;8.964;2023-04-29T02:40:17;98721.53;;;10.31;100.00
8318;BME280;4196;48.926;8.964;2023-04-29T02:43:03;98743.94;;;10.29;100.00
8318;BME280;4196;48.926;8.964;2023-04-29T02:45:50;98737.91;;;10.24;100.00
8318;BME280;4196;48.926;8.964;2023-04-29T02:48:37;98736.22;;;10.28;100.00
8318;BME280;4196;48.926;8.964;2023-04-29T02:51:24;98735.44;;;10.06;100.00
8318;BME280;4196;48.926;8.964;2023-04-29T02:54:10;98733.69;;;10.08;100.00
8318;BME280;4196;48.926;8.964;2023-04-29T02:56:57;98747.50;;;10.10;100.00
8318;BME280;4196;48.926;8.964;2023-04-29T02:59:44;98734.50;;;10.21;100.00
8318;BME280;4196;48.926;8.964;2023-04-29T03:02:30;98731.06;;;10.15;100.00
8318;BME280;4196;48.926;8.964;2023-04-29T03:05:18;98715.63;;;10.00;100.00
8318;BME280;4196;48.926;8.964;2023-04-29T03:08:05;98744.00;;;10.14;100.00
8318;BME280;4196;48.926;8.964;2023-04-29T03:10:52;98740.53;;;10.18;100.00
8318;BME280;4196;48.926;8.964;2023-04-29T03:13:38;98720.72;;;10.17;100.00
8318;BME280;4196;48.926;8.964;2023-04-29T03:16:26;98750.00;;;10.27;100.00
8318;BME280;4196;48.926;8.964;2023-04-29T03:19:14;98745.66;;;10.30;100.00
8318;BME280;4196;48.926;8.964;2023-04-29T03:22:00;98744.00;;;10.20;100.00
8318;BME280;4196;48.926;8.964;2023-04-29T03:24:47;98741.44;;;10.11;100.00
8318;BME280;4196;48.926;8.964;2023-04-29T03:27:34;98740.53;;;10.18;100.00
8318;BME280;4196;48.926;8.964;2023-04-29T03:30:20;98743.97;;;10.26;100.00
8318;BME280;4196;48.926;8.964;2023-04-29T03:33:10;98741.38;;;10.25;100.00
8318;BME280;4196;48.926;8.964;2023-04-29T03:35:57;98725.03;;;10.12;100.00
8318;BME280;4196;48.926;8.964;2023-04-29T03:38:56;98739.66;;;10.22;100.00
8318;BME280;4196;48.926;8.964;2023-04-29T03:41:43;98742.16;;;10.42;100.00
8318;BME280;4196;48.926;8.964;2023-04-29T03:44:29;98743.00;;;10.38;100.00
8318;BME280;4196;48.926;8.964;2023-04-29T03:47:16;98743.91;;;10.38;100.00
8318;BME280;4196;48.926;8.964;2023-04-29T03:50:05;98745.59;;;10.43;100.00
8318;BME280;4196;48.926;8.964;2023-04-29T03:52:52;98719.78;;;10.30;100.00
8318;BME280;4196;48.926;8.964;2023-04-29T03:55:38;98748.19;;;10.43;100.00
8318;BME280;4196;48.926;8.964;2023-04-29T03:58:25;98745.59;;;10.43;100.00
8318;BME280;4196;48.926;8.964;2023-04-29T04:01:12;98724.94;;;10.30;100.00
8318;BME280;4196;48.926;8.964;2023-04-29T04:04:02;98744.75;;;10.42;100.00
8318;BME280;4196;48.926;8.964;2023-04-29T04:06:50;98738.78;;;10.29;100.00
8318;BME280;4196;48.926;8.964;2023-04-29T04:09:45;98757.66;;;10.44;100.00
8318;BME280;4196;48.926;8.964;2023-04-29T04:12:31;98744.00;;;10.14;100.00
8318;BME280;4196;48.926;8.964;2023-04-29T04:15:18;98764.56;;;10.42;100.00
8318;BME280;4196;48.926;8.964;2023-04-29T04:18:05;98771.50;;;10.39;100.00
8318;BME280;4196;48.926;8.964;2023-04-29T04:20:51;98776.69;;;10.36;100.00
8318;BME280;4196;48.926;8.964;2023-04-29T04:23:39;98779.25;;;10.43;100.00
8318;BME280;4196;48.926;8.964;2023-04-29T04:26:33;98761.19;;;10.30;100.00
8318;BME280;4196;48.926;8.964;2023-04-29T04:29:53;98785.22;;;10.51;100.00
8318;BME280;4196;48.926;8.964;2023-04-29T04:32:45;98785.19;;;10.54;100.00
8318;BME280;4196;48.926;8.964;2023-04-29T04:35:32;98786.88;;;10.56;100.00
8318;BME280;4196;48.926;8.964;2023-04-29T04:38:18;98792.88;;;10.66;100.00
8318;BME280;4196;48.926;8.964;2023-04-29T04:41:06;98784.22;;;10.72;100.00
8318;BME280;4196;48.926;8.964;2023-04-29T04:43:55;98799.63;;;10.85;100.00
8318;BME280;4196;48.926;8.964;2023-04-29T04:47:09;98782.47;;;10.75;100.00
8318;BME280;4196;48.926;8.964;2023-04-29T04:50:07;98800.47;;;10.91;100.00
8318;BME280;4196;48.926;8.964;2023-04-29T04:52:55;98809.97;;;10.85;100.00
8318;BME280;4196;48.926;8.964;2023-04-29T04:56:02;98803.91;;;10.89;100.00
8318;BME280;4196;48.926;8.964;2023-04-29T04:58:50;98813.84;;;11.39;100.00
8318;BME280;4196;48.926;8.964;2023-04-29T05:01:37;98808.34;;;11.69;100.00
8318;BME280;4196;48.926;8.964;2023-04-29T05:04:24;98826.53;;;11.63;100.00
8318;BME280;4196;48.926;8.964;2023-04-29T05:07:11;98834.22;;;11.75;100.00
8318;BME280;4196;48.926;8.964;2023-04-29T05:10:16;98835.06;;;11.74;100.00
8318;BME280;4196;48.926;8.964;2023-04-29T05:13:07;98841.13;;;11.75;100.00
8318;BME280;4196;48.926;8.964;2023-04-29T05:15:55;98848.88;;;11.76;100.00
8318;BME280;4196;48.926;8.964;2023-04-29T05:18:45;98852.16;;;11.95;100.00
8318;BME280;4196;48.926;8.964;2023-04-29T05:21:33;98859.03;;;12.01;100.00
8318;BME280;4196;48.926;8.964;2023-04-29T05:24:20;98859.75;;;12.12;100.00
8318;BME280;4196;48.926;8.964;2023-04-29T05:27:08;98848.53;;;12.12;100.00
8318;BME280;4196;48.926;8.964;2023-04-29T05:29:54;98848.44;;;12.18;100.00
8318;BME280;4196;48.926;8.964;2023-04-29T05:32:41;98868.38;;;12.14;100.00
8318;BME280;4196;48.926;8.964;2023-04-29T05:35:31;98869.97;;;12.27;100.00
8318;BME280;4196;48.926;8.964;2023-04-29T05:38:19;98869.13;;;12.22;100.00
8318;BME280;4196;48.926;8.964;2023-04-29T05:41:13;98855.81;;;12.50;100.00
8318;BME280;4196;48.926;8.964;2023-04-29T05:43:59;98858.00;;;12.77;100.00
8318;BME280;4196;48.926;8.964;2023-04-29T05:46:46;98875.91;;;12.96;100.00
8318;BME280;4196;48.926;8.964;2023-04-29T05:49:35;98879.41;;;12.95;100.00
8318;BME280;4196;48.926;8.964;2023-04-29T05:52:21;98865.88;;;12.74;100.00
8318;BME280;4196;48.926;8.964;2023-04-29T05:55:09;98883.25;;;12.69;100.00
8318;BME280;4196;48.926;8.964;2023-04-29T05:57:55;98892.69;;;12.75;100.00
8318;BME280;4196;48.926;8.964;2023-04-29T06:00:42;98897.78;;;12.81;100.00
8318;BME280;4196;48.926;8.964;2023-04-29T06:03:35;98901.25;;;12.83;100.00
8318;BME280;4196;48.926;8.964;2023-04-29T06:06:55;98915.16;;;12.79;100.00
8318;BME280;4196;48.926;8.964;2023-04-29T06:10:01;98915.25;;;12.71;100.00
8318;BME280;4196;48.926;8.964;2023-04-29T06:12:49;98924.44;;;12.97;100.00
8318;BME280;4196;48.926;8.964;2023-04-29T06:15:37;98922.69;;;12.96;100.00
8318;BME280;4196;48.926;8.964;2023-04-29T06:18:24;98927.78;;;13.05;100.00
8318;BME280;4196;48.926;8.964;2023-04-29T06:21:10;98929.59;;;13.00;100.00
8318;BME280;4196;48.926;8.964;2023-04-29T06:23:57;98942.47;;;13.06;100.00
8318;BME280;4196;48.926;8.964;2023-04-29T06:26:44;98938.09;;;13.11;100.00
8318;BME280;4196;48.926;8.964;2023-04-29T06:29:31;98944.91;;;13.18;100.00
8318;BME280;4196;48.926;8.964;2023-04-29T06:32:17;98949.34;;;13.12;100.00
8318;BME280;4196;48.926;8.964;2023-04-29T06:35:05;98960.59;;;13.12;100.00
8318;BME280;4196;48.926;8.964;2023-04-29T06:38:08;98958.94;;;13.08;100.00
8318;BME280;4196;48.926;8.964;2023-04-29T06:41:12;98962.91;;;13.34;100.00
8318;BME280;4196;48.926;8.964;2023-04-29T06:44:25;98961.53;;;13.65;100.00
8318;BME280;4196;48.926;8.964;2023-04-29T06:47:21;98960.44;;;14.26;100.00
8318;BME280;4196;48.926;8.964;2023-04-29T06:50:24;98955.06;;;14.79;100.00
8318;BME280;4196;48.926;8.964;2023-04-29T06:53:11;98966.59;;;15.08;100.00
8318;BME280;4196;48.926;8.964;2023-04-29T06:55:59;98972.56;;;15.14;100.00
8318;BME280;4196;48.926;8.964;2023-04-29T06:58:45;98967.63;;;15.01;100.00
8318;BME280;4196;48.926;8.964;2023-04-29T07:01:32;98959.34;;;14.82;100.00
8318;BME280;4196;48.926;8.964;2023-04-29T07:04:19;98983.19;;;14.63;100.00
8318;BME280;4196;48.926;8.964;2023-04-29T07:07:06;98975.06;;;14.32;100.00
8318;BME280;4196;48.926;8.964;2023-04-29T07:09:53;98973.50;;;14.25;100.00
8318;BME280;4196;48.926;8.964;2023-04-29T07:12:40;98979.78;;;14.13;100.00
8318;BME280;4196;48.926;8.964;2023-04-29T07:15:27;98990.13;;;14.16;100.00
8318;BME280;4196;48.926;8.964;2023-04-29T07:18:14;98998.66;;;14.24;100.00
8318;BME280;4196;48.926;8.964;2023-04-29T07:21:01;99003.00;;;14.25;100.00
8318;BME280;4196;48.926;8.964;2023-04-29T07:23:47;98991.88;;;14.16;100.00
8318;BME280;4196;48.926;8.964;2023-04-29T07:26:34;98995.56;;;14.04;100.00
8318;BME280;4196;48.926;8.964;2023-04-29T07:29:20;99011.16;;;14.07;100.00
8318;BME280;4196;48.926;8.964;2023-04-29T07:32:07;99015.81;;;13.88;100.00
8318;BME280;4196;48.926;8.964;2023-04-29T07:34:56;99006.53;;;13.73;100.00
8318;BME280;4196;48.926;8.964;2023-04-29T07:37:43;98995.75;;;13.39;100.00
8318;BME280;4196;48.926;8.964;2023-04-29T07:40:30;99018.16;;;13.49;100.00
8318;BME280;4196;48.926;8.964;2023-04-29T07:43:17;99008.59;;;13.50;100.00
8318;BME280;4196;48.926;8.964;2023-04-29T07:46:04;99008.75;;;13.41;100.00
8318;BME280;4196;48.926;8.964;2023-04-29T07:48:51;99013.88;;;13.44;100.00
8318;BME280;4196;48.926;8.964;2023-04-29T07:51:41;99032.22;;;13.38;100.00
8318;BME280;4196;48.926;8.964;2023-04-29T07:54:29;99028.59;;;13.46;100.00
8318;BME280;4196;48.926;8.964;2023-04-29T07:57:15;99019.75;;;13.60;100.00
8318;BME280;4196;48.926;8.964;2023-04-29T08:00:03;99036.72;;;13.81;100.00
8318;BME280;4196;48.926;8.964;2023-04-29T08:02:59;99030.66;;;13.82;100.00
8318;BME280;4196;48.926;8.964;2023-04-29T08:05:47;99028.88;;;13.84;100.00
8318;BME280;4196;48.926;8.964;2023-04-29T08:08:35;99007.53;;;13.62;100.00
8318;BME280;4196;48.926;8.964;2023-04-29T08:11:22;99033.47;;;13.68;100.00
8318;BME280;4196;48.926;8.964;2023-04-29T08:14:09;99048.28;;;13.64;100.00
8318;BME280;4196;48.926;8.964;2023-04-29T08:16:57;99029.28;;;13.59;100.00
8318;BME280;4196;48.926;8.964;2023-04-29T08:19:43;99050.81;;;13.69;100.00
8318;BME280;4196;48.926;8.964;2023-04-29T08:22:29;99043.59;;;13.86;100.00
8318;BME280;4196;48.926;8.964;2023-04-29T08:25:16;99030.03;;;14.18;100.00
8318;BME280;4196;48.926;8.964;2023-04-29T08:28:02;99055.91;;;14.76;100.00
8318;BME280;4196;48.926;8.964;2023-04-29T08:30:49;99058.72;;;15.10;100.00
8318;BME280;4196;48.926;8.964;2023-04-29T08:33:36;99051.28;;;15.32;98.85
8318;BME280;4196;48.926;8.964;2023-04-29T08:36:22;99057.50;;;15.66;96.38
8318;BME280;4196;48.926;8.964;2023-04-29T08:39:08;99049.22;;;15.85;97.04
8318;BME280;4196;48.926;8.964;2023-04-29T08:41:56;99046.81;;;16.11;91.60
8318;BME280;4196;48.926;8.964;2023-04-29T08:44:43;99041.13;;;16.30;89.21
8318;BME280;4196;48.926;8.964;2023-04-29T08:47:30;99051.34;;;16.39;88.61
8318;BME280;4196;48.926;8.964;2023-04-29T08:50:18;99044.06;;;16.17;87.65
8318;BME280;4196;48.926;8.964;2023-04-29T08:53:05;98993.88;;;15.70;89.87
8318;BME280;4196;48.926;8.964;2023-04-29T08:55:53;99063.00;;;15.91;92.73
8318;BME280;4196;48.926;8.964;2023-04-29T08:58:40;99027.06;;;15.65;89.89
8318;BME280;4196;48.926;8.964;2023-04-29T09:01:29;99054.31;;;15.91;91.71
8318;BME280;4196;48.926;8.964;2023-04-29T09:04:47;99064.19;;;16.12;88.93
8318;BME280;4196;48.926;8.964;2023-04-29T09:07:39;99059.22;;;16.03;90.40
8318;BME280;4196;48.926;8.964;2023-04-29T09:10:26;99055.44;;;15.79;90.46
8318;BME280;4196;48.926;8.964;2023-04-29T09:13:25;99072.25;;;15.67;93.18
8318;BME280;4196;48.926;8.964;2023-04-29T09:16:13;99075.91;;;15.57;92.39
8318;BME280;4196;48.926;8.964;2023-04-29T09:18:59;99074.56;;;15.41;94.81
8318;BME280;4196;48.926;8.964;2023-04-29T09:21:53;99075.66;;;15.31;93.87
8318;BME280;4196;48.926;8.964;2023-04-29T09:24:43;99078.13;;;15.37;93.04
8318;BME280;4196;48.926;8.964;2023-04-29T09:27:31;99076.09;;;15.51;91.95
8318;BME280;4196;48.926;8.964;2023-04-29T09:30:18;99067.16;;;15.61;90.35
8318;BME280;4196;48.926;8.964;2023-04-29T09:33:07;99078.84;;;15.84;90.46
8318;BME280;4196;48.926;8.964;2023-04-29T09:35:54;99069.88;;;15.94;88.73
8318;BME280;4196;48.926;8.964;2023-04-29T09:38:53;99073.25;;;15.99;86.66
8318;BME280;4196;48.926;8.964;2023-04-29T09:44:40;99084.25;;;16.12;87.59
8318;BME280;4196;48.926;8.964;2023-04-29T09:47:30;99080.41;;;15.91;87.56
8318;BME280;4196;48.926;8.964;2023-04-29T09:50:18;99078.44;;;15.62;86.50
8318;BME280;4196;48.926;8.964;2023-04-29T09:53:06;99094.19;;;15.57;88.69
8318;BME280;4196;48.926;8.964;2023-04-29T09:56:00;99091.84;;;15.46;92.20
8318;BME280;4196;48.926;8.964;2023-04-29T09:58:47;99086.91;;;15.33;94.35
8318;BME280;4196;48.926;8.964;2023-04-29T10:01:34;99090.34;;;15.35;93.24
8318;BME280;4196;48.926;8.964;2023-04-29T10:04:23;99096.34;;;15.40;91.73
8318;BME280;4196;48.926;8.964;2023-04-29T10:07:16;99103.09;;;15.50;92.11
8318;BME280;4196;48.926;8.964;2023-04-29T10:10:05;99106.38;;;15.57;89.34
8318;BME280;4196;48.926;8.964;2023-04-29T10:12:53;99090.16;;;15.44;90.83
8318;BME280;4196;48.926;8.964;2023-04-29T10:15:48;99062.66;;;15.28;90.39
8318;BME280;4196;48.926;8.964;2023-04-29T10:18:40;99093.56;;;15.46;90.37
8318;BME280;4196;48.926;8.964;2023-04-29T10:21:28;99104.56;;;15.60;88.80
8318;BME280;4196;48.926;8.964;2023-04-29T10:24:17;99085.31;;;15.67;87.96
8318;BME280;4196;48.926;8.964;2023-04-29T10:27:08;99097.72;;;15.95;85.37
8318;BME280;4196;48.926;8.964;2023-04-29T10:29:57;99095.41;;;16.18;86.87
8318;BME280;4196;48.926;8.964;2023-04-29T10:32:47;99088.94;;;16.33;82.47
8318;BME280;4196;48.926;8.964;2023-04-29T10:35:37;99078.78;;;16.55;79.53
8318;BME280;4196;48.926;8.964;2023-04-29T10:38:37;99091.22;;;16.80;81.65
8318;BME280;4196;48.926;8.964;2023-04-29T10:41:30;99089.97;;;16.93;77.58
8318;BME280;4196;48.926;8.964;2023-04-29T10:44:18;99085.78;;;16.87;79.39
8318;BME280;4196;48.926;8.964;2023-04-29T10:47:17;99065.25;;;16.74;77.62
8318;BME280;4196;48.926;8.964;2023-04-29T10:50:05;99073.50;;;16.57;76.05
8318;BME280;4196;48.926;8.964;2023-04-29T10:52:53;99072.94;;;16.46;78.04
8318;BME280;4196;48.926;8.964;2023-04-29T10:55:41;99081.16;;;16.32;79.46
8318;BME280;4196;48.926;8.964;2023-04-29T11:01:45;99083.38;;;14.93;86.38
8318;BME280;4196;48.926;8.964;2023-04-29T11:04:32;99081.66;;;13.93;90.64
8318;BME280;4196;48.926;8.964;2023-04-29T11:07:26;99094.44;;;13.50;97.85
8318;BME280;4196;48.926;8.964;2023-04-29T11:10:14;99090.41;;;13.27;99.23
8318;BME280;4196;48.926;8.964;2023-04-29T11:13:23;99085.22;;;13.27;98.99
8318;BME280;4196;48.926;8.964;2023-04-29T11:16:11;99082.28;;;13.52;97.63
8318;BME280;4196;48.926;8.964;2023-04-29T11:19:06;99081.09;;;13.73;98.02
8318;BME280;4196;48.926;8.964;2023-04-29T11:22:27;99066.72;;;14.56;94.62
8318;BME280;4196;48.926;8.964;2023-04-29T11:25:15;99077.50;;;15.26;87.78
8318;BME280;4196;48.926;8.964;2023-04-29T11:28:02;99027.88;;;15.29;85.90
8318;BME280;4196;48.926;8.964;2023-04-29T11:30:49;99069.91;;;15.55;82.78
8318;BME280;4196;48.926;8.964;2023-04-29T11:33:36;99077.59;;;15.61;81.51
8318;BME280;4196;48.926;8.964;2023-04-29T11:36:23;99025.88;;;15.40;83.71
8318;BME280;4196;48.926;8.964;2023-04-29T11:39:10;99092.81;;;15.81;79.50
8318;BME280;4196;48.926;8.964;2023-04-29T11:42:06;99092.94;;;15.77;79.07
8318;BME280;4196;48.926;8.964;2023-04-29T11:44:54;99062.81;;;15.60;79.06
8318;BME280;4196;48.926;8.964;2023-04-29T11:47:46;99091.34;;;15.69;80.34
8318;BME280;4196;48.926;8.964;2023-04-29T11:50:34;99020.78;;;14.95;80.07
8318;BME280;4196;48.926;8.964;2023-04-29T11:53:23;99073.25;;;15.21;81.65
8318;BME280;4196;48.926;8.964;2023-04-29T11:56:10;99068.81;;;15.25;83.21
8318;BME280;4196;48.926;8.964;2023-04-29T11:58:57;99090.66;;;15.19;81.59
8318;BME280;4196;48.926;8.964;2023-04-29T12:01:45;99075.53;;;15.37;82.91
8318;BME280;4196;48.926;8.964;2023-04-29T12:04:31;99089.50;;;15.75;81.15
8318;BME280;4196;48.926;8.964;2023-04-29T12:07:18;99102.34;;;16.19;77.21
8318;BME280;4196;48.926;8.964;2023-04-29T12:10:09;99098.47;;;16.36;74.32
8318;BME280;4196;48.926;8.964;2023-04-29T12:12:57;99106.88;;;16.47;77.44
8318;BME280;4196;48.926;8.964;2023-04-29T12:15:45;99097.50;;;16.38;76.37
8318;BME280;4196;48.926;8.964;2023-04-29T12:18:33;99085.81;;;16.53;76.97
8318;BME280;4196;48.926;8.964;2023-04-29T12:21:23;99098.56;;;16.64;76.03
8318;BME280;4196;48.926;8.964;2023-04-29T12:24:11;99096.63;;;16.72;73.85
8318;BME280;4196;48.926;8.964;2023-04-29T12:26:59;99093.41;;;16.62;74.05
8318;BME280;4196;48.926;8.964;2023-04-29T12:29:45;99096.09;;;16.59;74.69
8318;BME280;4196;48.926;8.964;2023-04-29T12:32:32;99085.00;;;16.51;73.38
8318;BME280;4196;48.926;8.964;2023-04-29T12:35:19;99097.47;;;16.74;73.01
8318;BME280;4196;48.926;8.964;2023-04-29T12:38:07;99108.25;;;16.95;72.32
8318;BME280;4196;48.926;8.964;2023-04-29T12:40:57;99105.66;;;16.93;71.24
8318;BME280;4196;48.926;8.964;2023-04-29T12:43:44;99110.41;;;16.80;71.96
8318;BME280;4196;48.926;8.964;2023-04-29T12:46:36;99113.66;;;16.88;70.06
8318;BME280;4196;48.926;8.964;2023-04-29T12:49:23;99114.34;;;16.95;73.39
8318;BME280;4196;48.926;8.964;2023-04-29T12:52:10;99104.25;;;16.81;71.96
8318;BME280;4196;48.926;8.964;2023-04-29T12:54:56;99118.06;;;17.18;70.61
8318;BME280;4196;48.926;8.964;2023-04-29T12:57:43;99116.47;;;17.43;68.88
8318;BME280;4196;48.926;8.964;2023-04-29T13:00:29;99122.47;;;17.15;68.52
8318;BME280;4196;48.926;8.964;2023-04-29T13:03:16;99096.97;;;17.24;70.37
8318;BME280;4196;48.926;8.964;2023-04-29T13:06:07;99120.06;;;17.09;68.87
8318;BME280;4196;48.926;8.964;2023-04-29T13:08:54;99112.34;;;17.05;70.80
8318;BME280;4196;48.926;8.964;2023-04-29T13:11:40;99103.13;;;16.57;70.97
8318;BME280;4196;48.926;8.964;2023-04-29T13:14:26;99113.75;;;16.51;71.61
8318;BME280;4196;48.926;8.964;2023-04-29T13:17:13;99101.66;;;16.47;74.83
8318;BME280;4196;48.926;8.964;2023-04-29T13:19:59;99097.66;;;16.66;75.55
8318;BME280;4196;48.926;8.964;2023-04-29T13:22:46;99121.06;;;16.71;73.95
8318;BME280;4196;48.926;8.964;2023-04-29T13:25:33;99078.38;;;16.71;72.61
8318;BME280;4196;48.926;8.964;2023-04-29T13:28:19;99101.22;;;16.97;71.65
8318;BME280;4196;48.926;8.964;2023-04-29T13:31:07;99074.94;;;16.69;70.96
8318;BME280;4196;48.926;8.964;2023-04-29T13:33:53;99093.06;;;16.76;71.28
8318;BME280;4196;48.926;8.964;2023-04-29T13:36:40;99119.41;;;16.69;69.44
8318;BME280;4196;48.926;8.964;2023-04-29T13:39:26;99105.41;;;16.37;71.00
8318;BME280;4196;48.926;8.964;2023-04-29T13:42:13;99117.09;;;15.85;73.22
8318;BME280;4196;48.926;8.964;2023-04-29T13:45:01;99080.22;;;15.19;75.84
8318;BME280;4196;48.926;8.964;2023-04-29T13:47:49;99141.91;;;15.65;78.52
8318;BME280;4196;48.926;8.964;2023-04-29T13:50:38;99135.09;;;15.57;76.02
8318;BME280;4196;48.926;8.964;2023-04-29T13:53:29;99118.28;;;15.30;79.17
8318;BME280;4196;48.926;8.964;2023-04-29T13:56:18;99138.91;;;15.42;79.81
8318;BME280;4196;48.926;8.964;2023-04-29T13:59:07;99138.78;;;15.48;79.51
8318;BME280;4196;48.926;8.964;2023-04-29T14:02:14;99134.56;;;15.41;78.28
8318;BME280;4196;48.926;8.964;2023-04-29T14:05:11;99142.72;;;15.26;79.53
8318;BME280;4196;48.926;8.964;2023-04-29T14:07:58;99139.41;;;15.17;81.14
8318;BME280;4196;48.926;8.964;2023-04-29T14:10:45;99116.81;;;15.16;79.90
8318;BME280;4196;48.926;8.964;2023-04-29T14:13:31;99149.09;;;15.11;79.91
8318;BME280;4196;48.926;8.964;2023-04-29T14:16:18;99125.16;;;14.90;82.24
8318;BME280;4196;48.926;8.964;2023-04-29T14:19:04;99134.81;;;14.84;82.82
8318;BME280;4196;48.926;8.964;2023-04-29T14:21:51;99139.06;;;14.89;82.33
8318;BME280;4196;48.926;8.964;2023-04-29T14:24:38;99145.00;;;14.99;80.91
8318;BME280;4196;48.926;8.964;2023-04-29T14:27:24;99145.63;;;15.10;80.35
8318;BME280;4196;48.926;8.964;2023-04-29T14:30:11;99135.22;;;15.10;80.49
8318;BME280;4196;48.926;8.964;2023-04-29T14:32:57;99148.69;;;15.32;79.34
8318;BME280;4196;48.926;8.964;2023-04-29T14:35:44;99144.50;;;15.23;78.41
8318;BME280;4196;48.926;8.964;2023-04-29T14:38:31;99157.22;;;15.39;78.62
8318;BME280;4196;48.926;8.964;2023-04-29T14:41:18;99159.66;;;15.48;76.93
8318;BME280;4196;48.926;8.964;2023-04-29T14:44:07;99156.75;;;15.62;76.25
8318;BME280;4196;48.926;8.964;2023-04-29T14:46:53;99144.97;;;15.42;77.23
8318;BME280;4196;48.926;8.964;2023-04-29T14:49:39;99150.00;;;15.52;76.16
8318;BME280;4196;48.926;8.964;2023-04-29T14:52:27;99148.25;;;15.52;76.40
8318;BME280;4196;48.926;8.964;2023-04-29T14:55:14;99119.50;;;15.12;75.82
8318;BME280;4196;48.926;8.964;2023-04-29T14:58:00;99153.03;;;15.32;78.82
8318;BME280;4196;48.926;8.964;2023-04-29T15:00:50;99168.16;;;15.56;80.29
8318;BME280;4196;48.926;8.964;2023-04-29T15:03:36;99172.97;;;15.34;77.65
8318;BME280;4196;48.926;8.964;2023-04-29T15:06:30;99145.06;;;15.38;79.69
8318;BME280;4196;48.926;8.964;2023-04-29T15:09:17;99172.41;;;15.62;79.06
8318;BME280;4196;48.926;8.964;2023-04-29T15:12:04;99162.94;;;15.56;78.83
8318;BME280;4196;48.926;8.964;2023-04-29T15:14:50;99145.16;;;15.33;78.29
8318;BME280;4196;48.926;8.964;2023-04-29T15:17:38;99163.53;;;15.29;76.96
8318;BME280;4196;48.926;8.964;2023-04-29T15:20:24;99150.00;;;15.08;77.07
8318;BME280;4196;48.926;8.964;2023-04-29T15:23:11;99148.34;;;15.04;79.26